Terminal Aerodrome Forecast
Issued by NWS

Home | Current Version | Previous Version | Graphics & Text | Print | Product List | Glossary On
Versions: 1 2 3 4 5 6 7 8 9 10 11 12 13
000
FTUS43 KPAH 242300
TAFOWB
TAF
KOWB 242320Z 2500/2524 VRB03KT P6SM SCT250
     FM250900 VRB02KT 5SM BR SCT040 BKN250
     FM251400 24005KT P6SM SCT040 BKN100
     FM251900 29007KT P6SM SCT100 BKN250=

USA.gov is the U.S. government's official web portal to all federal, state and local government web resources and services.